Snoqualmie River: South Fork station

back to: Snoqualmie river
South Fork station Summary - (NOAA Hydrograph: GARW1)
Latest reading:
Mon04/22 09:15 am 11.38 ft 456 cfs (+36/hr)
Past 24hr max:
Sun04/21 09:15 am 11.47 ft 494 cfs
Forecasted crests: (published Mon 04/22/19 08:52 am)
Mon04/22 11:00 am 11.36 ft 448 cfs
Tue04/23 05:00 pm 12.02 ft 768 cfs
Fri04/26 05:00 am 11.58 ft 543 cfs
Mon04/29 11:00 am 11.26 ft 408 cfs
Tue04/30 05:00 am 11.22 ft 389 cfs
Wed05/01 05:00 am 11.39 ft 461 cfs

South Fork station Details

Latest Readings

Last 100 Readings:
Mon04/22 09:15 am 11.38 ft 456 cfs
Mon04/22 09:00 am 11.36 ft 447 cfs
Mon04/22 08:45 am 11.38 ft 456 cfs
Mon04/22 08:30 am 11.38 ft 456 cfs
Mon04/22 08:15 am 11.38 ft 456 cfs
Mon04/22 08:00 am 11.39 ft 460 cfs
Mon04/22 07:45 am 11.38 ft 456 cfs
Mon04/22 07:30 am 11.4 ft 464 cfs
Mon04/22 07:15 am 11.38 ft 456 cfs
Mon04/22 07:00 am 11.4 ft 464 cfs
Mon04/22 06:45 am 11.39 ft 460 cfs
Mon04/22 06:30 am 11.38 ft 456 cfs
Mon04/22 06:15 am 11.39 ft 460 cfs
Mon04/22 06:00 am 11.41 ft 468 cfs
Mon04/22 05:45 am 11.4 ft 464 cfs
Mon04/22 05:30 am 11.41 ft 468 cfs
Mon04/22 05:15 am 11.41 ft 468 cfs
Mon04/22 05:00 am 11.39 ft 460 cfs
Mon04/22 04:45 am 11.4 ft 464 cfs
Mon04/22 04:30 am 11.41 ft 468 cfs
Mon04/22 04:15 am 11.41 ft 468 cfs
Mon04/22 04:00 am 11.42 ft 473 cfs
Mon04/22 03:45 am 11.43 ft 477 cfs
Mon04/22 03:30 am 11.41 ft 468 cfs
Mon04/22 03:15 am 11.42 ft 473 cfs
Mon04/22 03:00 am 11.42 ft 473 cfs
Mon04/22 02:45 am 11.43 ft 477 cfs
Mon04/22 02:30 am 11.43 ft 477 cfs
Mon04/22 02:15 am 11.43 ft 477 cfs
Mon04/22 02:00 am 11.43 ft 477 cfs
Mon04/22 01:45 am 11.42 ft 473 cfs
Mon04/22 01:30 am 11.43 ft 477 cfs
Mon04/22 01:15 am 11.43 ft 477 cfs
Mon04/22 01:00 am 11.44 ft 481 cfs
Mon04/22 12:45 am 11.44 ft 481 cfs
Mon04/22 12:30 am 11.44 ft 481 cfs
Mon04/22 12:15 am 11.44 ft 481 cfs
Mon04/22 12:00 am 11.44 ft 481 cfs
Sun04/21 11:45 pm 11.45 ft 486 cfs
Sun04/21 11:30 pm 11.44 ft 481 cfs
Sun04/21 11:15 pm 11.45 ft 486 cfs
Sun04/21 11:00 pm 11.45 ft 486 cfs
Sun04/21 10:45 pm 11.45 ft 486 cfs
Sun04/21 10:30 pm 11.47 ft 494 cfs
Sun04/21 10:15 pm 11.45 ft 486 cfs
Sun04/21 10:00 pm 11.46 ft 490 cfs
Sun04/21 09:45 pm 11.46 ft 490 cfs
Sun04/21 09:30 pm 11.45 ft 486 cfs
Sun04/21 09:15 pm 11.46 ft 490 cfs
Sun04/21 09:00 pm 11.44 ft 481 cfs
Sun04/21 08:45 pm 11.45 ft 486 cfs
Sun04/21 08:30 pm 11.46 ft 490 cfs
Sun04/21 08:15 pm 11.45 ft 486 cfs
Sun04/21 08:00 pm 11.45 ft 486 cfs
Sun04/21 07:45 pm 11.44 ft 481 cfs
Sun04/21 07:30 pm 11.45 ft 486 cfs
Sun04/21 07:15 pm 11.44 ft 481 cfs
Sun04/21 07:00 pm 11.44 ft 481 cfs
Sun04/21 06:45 pm 11.44 ft 481 cfs
Sun04/21 06:30 pm 11.43 ft 477 cfs
Sun04/21 06:15 pm 11.44 ft 481 cfs
Sun04/21 06:00 pm 11.44 ft 481 cfs
Sun04/21 05:45 pm 11.43 ft 477 cfs
Sun04/21 05:30 pm 11.41 ft 468 cfs
Sun04/21 05:15 pm 11.42 ft 473 cfs
Sun04/21 05:00 pm 11.42 ft 473 cfs
Sun04/21 04:45 pm 11.41 ft 468 cfs
Sun04/21 04:30 pm 11.41 ft 468 cfs
Sun04/21 04:15 pm 11.41 ft 468 cfs
Sun04/21 04:00 pm 11.41 ft 468 cfs
Sun04/21 03:45 pm 11.4 ft 464 cfs
Sun04/21 03:30 pm 11.41 ft 468 cfs
Sun04/21 03:15 pm 11.41 ft 468 cfs
Sun04/21 03:00 pm 11.42 ft 473 cfs
Sun04/21 02:45 pm 11.42 ft 473 cfs
Sun04/21 02:30 pm 11.41 ft 468 cfs
Sun04/21 02:15 pm 11.41 ft 468 cfs
Sun04/21 02:00 pm 11.43 ft 477 cfs
Sun04/21 01:45 pm 11.42 ft 473 cfs
Sun04/21 01:30 pm 11.43 ft 477 cfs
Sun04/21 01:15 pm 11.43 ft 477 cfs
Sun04/21 01:00 pm 11.43 ft 477 cfs
Sun04/21 12:45 pm 11.43 ft 477 cfs
Sun04/21 12:30 pm 11.42 ft 473 cfs
Sun04/21 12:15 pm 11.45 ft 486 cfs
Sun04/21 12:00 pm 11.44 ft 481 cfs
Sun04/21 11:45 am 11.44 ft 481 cfs
Sun04/21 11:30 am 11.45 ft 486 cfs
Sun04/21 11:15 am 11.44 ft 481 cfs
Sun04/21 11:00 am 11.45 ft 486 cfs
Sun04/21 10:45 am 11.46 ft 490 cfs
Sun04/21 10:30 am 11.46 ft 490 cfs
Sun04/21 10:15 am 11.47 ft 494 cfs
Sun04/21 10:00 am 11.46 ft 490 cfs
Sun04/21 09:45 am 11.46 ft 490 cfs
Sun04/21 09:30 am 11.47 ft 494 cfs
Sun04/21 09:15 am 11.47 ft 494 cfs
Sun04/21 09:00 am 11.48 ft 499 cfs
Sun04/21 08:45 am 11.49 ft 503 cfs
Sun04/21 08:30 am 11.49 ft 503 cfs

Latest Forecasts

Currently Forecasted Readings:
Mon04/22 11:00 am 11.36 ft 448 cfs
Mon04/22 05:00 pm 11.32 ft 430 cfs
Mon04/22 11:00 pm 11.4 ft 465 cfs
Tue04/23 05:00 am 11.69 ft 595 cfs
Tue04/23 11:00 am 12.01 ft 766 cfs
Tue04/23 05:00 pm 12.02 ft 768 cfs
Tue04/23 11:00 pm 11.96 ft 738 cfs
Wed04/24 05:00 am 11.87 ft 688 cfs
Wed04/24 11:00 am 11.75 ft 629 cfs
Wed04/24 05:00 pm 11.65 ft 577 cfs
Wed04/24 11:00 pm 11.6 ft 554 cfs
Thu04/25 05:00 am 11.59 ft 547 cfs
Thu04/25 11:00 am 11.52 ft 518 cfs
Thu04/25 05:00 pm 11.47 ft 497 cfs
Thu04/25 11:00 pm 11.53 ft 520 cfs
Fri04/26 05:00 am 11.58 ft 543 cfs
Fri04/26 11:00 am 11.56 ft 538 cfs
Fri04/26 05:00 pm 11.5 ft 506 cfs
Fri04/26 11:00 pm 11.47 ft 494 cfs
Sat04/27 05:00 am 11.45 ft 487 cfs
Sat04/27 11:00 am 11.41 ft 470 cfs
Sat04/27 05:00 pm 11.35 ft 443 cfs
Sat04/27 11:00 pm 11.31 ft 429 cfs
Sun04/28 05:00 am 11.3 ft 422 cfs
Sun04/28 11:00 am 11.26 ft 405 cfs
Sun04/28 05:00 pm 11.17 ft 373 cfs
Sun04/28 11:00 pm 11.2 ft 384 cfs
Mon04/29 05:00 am 11.26 ft 406 cfs
Mon04/29 11:00 am 11.26 ft 408 cfs
Mon04/29 05:00 pm 11.22 ft 391 cfs
Mon04/29 11:00 pm 11.21 ft 386 cfs
Tue04/30 05:00 am 11.22 ft 389 cfs
Tue04/30 11:00 am 11.2 ft 383 cfs
Tue04/30 05:00 pm 11.2 ft 383 cfs
Tue04/30 11:00 pm 11.31 ft 427 cfs
Wed05/01 05:00 am 11.39 ft 461 cfs
Wed05/01 11:00 am 11.39 ft 461 cfs
Wed05/01 05:00 pm 11.38 ft 456 cfs
Wed05/01 11:00 pm 11.44 ft 480 cfs
Thu05/02 05:00 am 11.48 ft 500 cfs

Snoqualmie River flood gauge data supplied by the
National Weather Service Northwest River Forecast Center.

Sign up for Floodzilla alerts.